Bangor, Maine
Current Conditions -  °F | °C
As of 10:10 PM on Saturday 24 Jan 2015 (Local Time) from KBGR Reporting Station
Overcast Overcast  
Wind Chill: 15°   Ceiling: 5500
Heat Index: 27°   Visibility: 7mi
Dew Point: 24°   Wind: 15mph
Humidity: 89%   Direction: 340°NNW
Pressure: 29.08"   Gusts: NA
Location:  44.8°N, 68.77°W
Report Text: KBGR 250310Z 34013KT 7SM FEW006 OVC055 M03/M04 A2908 RMK AO2 SNE00 P0000 T10281044
Loading
Personal Weather Stations






























Interactive Weather Map New forecast layout! Learn more

10-Day Weather Forecast

Advertisements
Track Severe Weather on mobile